Time;durP1;ratioP1;P1;durP2;ratioP2;P2;SDS_P1;SDS_P2;PMS_P1;PMS_P2;Temp;Humidity;BMP_temperature;BMP_pressure;BME280_temperature;BME280_humidity;BME280_pressure;Samples;Min_cycle;Max_cycle;Signal;HPM_P1;HPM_P2
2022/09/13 00:00:33;;;;;;;8.68;7.78;;;;;;;16.59;89.41;100915.91;5031027;28;20025;-72
2022/09/13 00:02:59;;;;;;;9.95;7.40;;;;;;;16.61;89.63;100919.25;5045563;28;20055;-72
2022/09/13 00:05:25;;;;;;;8.35;7.35;;;;;;;16.60;90.77;100917.59;5028804;28;20033;-77
2022/09/13 00:07:50;;;;;;;8.70;7.30;;;;;;;16.60;89.67;100922.91;5029526;28;20034;-77
2022/09/13 00:10:15;;;;;;;8.63;7.00;;;;;;;16.60;88.58;100934.34;5027771;28;20034;-76
2022/09/13 00:12:41;;;;;;;8.32;7.43;;;;;;;16.62;88.12;100928.88;5028906;28;20018;-71
2022/09/13 00:15:08;;;;;;;8.15;7.35;;;;;;;16.62;88.42;100931.53;5036045;28;20028;-72
2022/09/13 00:17:33;;;;;;;9.57;7.45;;;;;;;16.66;88.35;100921.47;5049286;28;20099;-77
2022/09/13 00:19:59;;;;;;;12.68;7.65;;;;;;;16.63;88.16;100911.13;5050355;28;20552;-76
2022/09/13 00:22:26;;;;;;;8.50;7.35;;;;;;;16.64;88.73;100913.63;5032251;28;20099;-72
2022/09/13 00:24:51;;;;;;;8.82;7.43;;;;;;;16.68;88.32;100901.75;5031999;28;20573;-76
2022/09/13 00:27:16;;;;;;;7.78;6.97;;;;;;;16.66;88.06;100901.06;5031910;28;20025;-77
2022/09/13 00:29:42;;;;;;;7.78;7.05;;;;;;;16.67;89.20;100901.91;5032241;28;20030;-72
2022/09/13 00:32:07;;;;;;;9.90;7.00;;;;;;;16.68;88.94;100904.41;5014783;28;20091;-72
2022/09/13 00:34:32;;;;;;;7.88;7.07;;;;;;;16.64;88.92;100903.00;5015514;28;20539;-72
2022/09/13 00:36:58;;;;;;;10.13;7.55;;;;;;;16.66;87.55;100895.75;5050932;28;20853;-77
2022/09/13 00:39:23;;;;;;;9.27;7.63;;;;;;;16.65;87.66;100899.38;5039029;28;20032;-72
2022/09/13 00:41:48;;;;;;;8.23;7.18;;;;;;;16.64;88.28;100889.72;5031741;28;20040;-77
2022/09/13 00:44:51;;;;;;;10.00;7.57;;;;;;;16.70;87.65;100889.16;5031402;28;20084;-71
2022/09/13 00:47:39;;;;;;;8.48;7.60;;;;;;;16.70;87.91;100885.66;5049679;28;20017;-72
2022/09/13 00:50:14;;;;;;;9.05;7.43;;;;;;;16.68;88.81;100888.47;5039786;28;20080;-72
2022/09/13 00:52:41;;;;;;;11.98;7.72;;;;;;;16.66;88.17;100885.13;5030751;28;20028;-72
2022/09/13 00:55:17;;;;;;;10.30;7.88;;;;;;;16.69;86.85;100886.63;5036187;28;20033;-72
2022/09/13 00:57:43;;;;;;;11.07;7.97;;;;;;;16.72;85.91;100879.19;5032693;28;20029;-71
2022/09/13 01:00:12;;;;;;;8.52;7.55;;;;;;;16.71;86.71;100876.69;5031402;28;20032;-72
2022/09/13 01:02:43;;;;;;;13.85;7.38;;;;;;;16.72;86.80;100876.53;5032472;28;20489;-72
2022/09/13 01:05:10;;;;;;;11.13;7.88;;;;;;;16.76;86.39;100880.56;5031411;28;20032;-71
2022/09/13 01:07:37;;;;;;;10.07;8.35;;;;;;;16.74;86.04;100871.91;5032455;28;20106;-72
2022/09/13 01:10:06;;;;;;;9.55;6.93;;;;;;;16.79;85.72;100874.09;5032104;28;20458;-72
2022/09/13 01:12:52;;;;;;;9.25;7.70;;;;;;;16.81;86.07;100880.97;5035325;28;20045;-72
2022/09/13 01:15:18;;;;;;;9.10;7.68;;;;;;;16.82;85.52;100873.81;5032304;28;20315;-72
2022/09/13 01:17:44;;;;;;;10.55;8.30;;;;;;;16.82;85.38;100874.66;5014419;28;20036;-71
2022/09/13 01:20:11;;;;;;;10.07;7.88;;;;;;;16.85;86.07;100868.19;5030924;28;20382;-72
2022/09/13 01:23:05;;;;;;;9.30;8.30;;;;;;;16.85;85.13;100871.69;5033264;28;20017;-77
2022/09/13 01:26:02;;;;;;;10.38;8.57;;;;;;;16.87;84.85;100875.03;5022291;28;20028;-72
2022/09/13 01:28:45;;;;;;;11.93;8.20;;;;;;;16.89;85.06;100870.41;5049835;28;20033;-72
2022/09/13 01:31:52;;;;;;;8.45;7.63;;;;;;;16.90;85.57;100872.06;5031189;28;20025;-71
2022/09/13 01:34:38;;;;;;;9.35;8.18;;;;;;;16.82;87.17;100866.69;5048929;28;20083;-72
2022/09/13 01:37:28;;;;;;;10.90;8.18;;;;;;;16.81;86.39;100861.50;5049280;28;20521;-72
2022/09/13 01:40:16;;;;;;;8.10;7.30;;;;;;;16.84;87.96;100866.53;5050552;28;20025;-72
2022/09/13 01:42:47;;;;;;;8.57;7.55;;;;;;;16.79;88.26;100861.66;5049752;28;20103;-71
2022/09/13 01:45:37;;;;;;;9.90;7.72;;;;;;;16.82;88.65;100868.50;5048723;28;20063;-72
2022/09/13 01:48:18;;;;;;;8.82;7.40;;;;;;;16.75;88.97;100864.78;5037539;28;20110;-72
2022/09/13 01:51:05;;;;;;;9.45;7.72;;;;;;;16.72;89.07;100863.25;5030761;28;20323;-72
2022/09/13 01:53:37;;;;;;;10.73;7.90;;;;;;;16.70;89.46;100853.75;5029272;28;20646;-72
2022/09/13 01:56:18;;;;;;;8.80;7.72;;;;;;;16.69;88.83;100855.59;5028427;28;20056;-72
2022/09/13 01:58:51;;;;;;;10.20;8.63;;;;;;;16.68;89.11;100851.25;5030957;28;20025;-72
2022/09/13 02:01:41;;;;;;;8.10;7.30;;;;;;;16.72;90.11;100852.63;5028092;28;20470;-72
2022/09/13 02:04:12;;;;;;;8.80;7.65;;;;;;;16.68;90.72;100856.56;5034486;28;20065;-71
2022/09/13 02:06:44;;;;;;;8.77;7.55;;;;;;;16.67;91.48;100857.56;5029532;28;20028;-72
2022/09/13 02:09:18;;;;;;;8.77;7.78;;;;;;;16.67;91.62;100860.22;5029510;28;20542;-72
2022/09/13 02:11:48;;;;;;;11.73;8.02;;;;;;;16.64;91.54;100863.16;5012790;28;20026;-71
2022/09/13 02:14:21;;;;;;;9.15;7.88;;;;;;;16.64;91.44;100859.66;5025193;28;20043;-72
2022/09/13 02:16:54;;;;;;;9.38;8.48;;;;;;;16.66;91.27;100863.03;5031115;28;20612;-71
2022/09/13 02:19:27;;;;;;;11.18;8.30;;;;;;;16.66;90.48;100858.56;5029763;28;20079;-72
2022/09/13 02:21:58;;;;;;;11.85;8.20;;;;;;;16.65;91.25;100854.19;5019145;28;20072;-72
2022/09/13 02:24:29;;;;;;;8.75;7.70;;;;;;;16.68;91.91;100866.38;5030132;28;20105;-72
2022/09/13 02:26:58;;;;;;;9.30;7.50;;;;;;;16.67;92.26;100860.22;5038410;28;20020;-72
2022/09/13 02:29:27;;;;;;;9.32;8.32;;;;;;;16.64;92.30;100862.31;5050082;28;20020;-72
2022/09/13 02:32:05;;;;;;;11.10;8.68;;;;;;;16.65;92.46;100858.69;5050988;28;20053;-72
2022/09/13 02:34:44;;;;;;;10.52;8.25;;;;;;;16.66;92.93;100861.22;5032516;28;20369;-72
2022/09/13 02:37:11;;;;;;;9.18;8.25;;;;;;;16.62;92.43;100873.09;5028743;28;20512;-71
2022/09/13 02:39:44;;;;;;;10.88;8.80;;;;;;;16.59;91.87;100873.41;5031601;28;20056;-71
2022/09/13 02:42:16;;;;;;;9.38;7.93;;;;;;;16.59;92.47;100878.72;5049065;28;20024;-77
2022/09/13 02:44:45;;;;;;;8.87;7.97;;;;;;;16.63;91.15;100882.75;5036252;28;20466;-72
2022/09/13 02:47:37;;;;;;;9.20;7.97;;;;;;;16.64;91.22;100887.06;5029898;28;20390;-71
2022/09/13 02:50:21;;;;;;;10.57;7.80;;;;;;;16.63;91.86;100881.91;5030221;28;20524;-72
2022/09/13 02:53:11;;;;;;;10.48;8.20;;;;;;;16.68;90.67;100882.31;5045389;28;20028;-74
2022/09/13 02:55:48;;;;;;;11.55;8.00;;;;;;;16.65;90.13;100886.06;5050300;28;20032;-72
2022/09/13 02:58:41;;;;;;;9.23;7.40;;;;;;;16.70;89.66;100885.66;5049048;28;20028;-72
2022/09/13 03:01:06;;;;;;;9.32;8.10;;;;;;;16.69;89.36;100876.00;5049963;28;20043;-72
2022/09/13 03:03:31;;;;;;;8.05;7.25;;;;;;;16.68;89.41;100880.50;5049861;28;20584;-72
2022/09/13 03:05:58;;;;;;;8.98;7.72;;;;;;;16.70;88.92;100870.53;5049303;28;20114;-72
2022/09/13 03:08:24;;;;;;;9.13;8.00;;;;;;;16.68;88.78;100867.22;5050068;28;20032;-72
2022/09/13 03:11:10;;;;;;;9.48;7.63;;;;;;;16.72;88.99;100883.69;5036240;28;20025;-72
2022/09/13 03:14:03;;;;;;;7.68;6.88;;;;;;;16.73;89.80;100885.34;5030870;28;20026;-73
2022/09/13 03:16:38;;;;;;;7.88;7.07;;;;;;;16.68;90.63;100877.00;5030068;28;20496;-72
2022/09/13 03:19:25;;;;;;;11.40;7.20;;;;;;;16.72;89.83;100867.72;5029035;28;20025;-72
2022/09/13 03:22:03;;;;;;;8.50;6.93;;;;;;;16.71;89.38;100874.88;5045615;28;20028;-79
2022/09/13 03:24:57;;;;;;;9.85;7.10;;;;;;;16.69;90.53;100876.00;5049621;28;20025;-74
2022/09/13 03:27:52;;;;;;;8.20;7.43;;;;;;;16.66;91.57;100868.34;5019839;28;20045;-74
2022/09/13 03:30:18;;;;;;;8.38;7.20;;;;;;;16.67;91.85;100872.69;5028284;28;20045;-72
2022/09/13 03:33:07;;;;;;;8.13;7.20;;;;;;;16.69;91.96;100868.03;5028984;28;20437;-72
2022/09/13 03:35:48;;;;;;;8.50;7.10;;;;;;;16.65;92.77;100867.47;5029067;28;20083;-72
2022/09/13 03:38:23;;;;;;;8.35;7.15;;;;;;;16.60;93.04;100859.13;5027844;28;20029;-72
2022/09/13 03:40:58;;;;;;;8.25;6.95;;;;;;;16.62;93.00;100867.78;5027102;28;20030;-73
2022/09/13 03:43:34;;;;;;;9.23;6.75;;;;;;;16.59;92.89;100873.41;5028986;28;20105;-73
2022/09/13 03:46:04;;;;;;;7.38;6.68;;;;;;;16.56;93.02;100874.53;5016617;28;20120;-72
2022/09/13 03:48:30;;;;;;;7.22;6.53;;;;;;;16.56;93.31;100873.72;5047798;28;20613;-72
2022/09/13 03:50:56;;;;;;;10.30;7.00;;;;;;;16.52;93.08;100867.03;5050320;28;20029;-72
2022/09/13 03:53:29;;;;;;;8.25;6.72;;;;;;;16.56;92.67;100857.78;5014128;28;20068;-72
2022/09/13 03:55:55;;;;;;;9.25;7.40;;;;;;;16.55;91.93;100848.13;5013558;28;20496;-72
2022/09/13 03:58:21;;;;;;;9.43;6.72;;;;;;;16.54;91.68;100849.97;5013835;28;20033;-72
2022/09/13 04:00:47;;;;;;;8.93;6.38;;;;;;;16.55;91.94;100848.13;5012708;28;20029;-72
2022/09/13 04:03:14;;;;;;;11.75;7.00;;;;;;;16.57;91.69;100854.97;5033740;28;20033;-72
2022/09/13 04:05:39;;;;;;;9.60;7.40;;;;;;;16.55;91.28;100861.41;5032817;28;20010;-72
2022/09/13 04:08:06;;;;;;;8.93;6.97;;;;;;;16.57;91.41;100854.97;5030928;28;20502;-71
2022/09/13 04:10:33;;;;;;;7.90;7.10;;;;;;;16.59;91.75;100868.94;5031748;28;20021;-71
2022/09/13 04:13:01;;;;;;;9.90;6.97;;;;;;;16.58;91.30;100871.72;5046766;28;20037;-72
2022/09/13 04:15:28;;;;;;;8.50;6.82;;;;;;;16.56;90.48;100869.22;5033316;28;20095;-72
2022/09/13 04:17:53;;;;;;;9.90;7.60;;;;;;;16.55;90.56;100872.03;5035834;28;20029;-76
2022/09/13 04:20:19;;;;;;;9.93;7.35;;;;;;;16.57;91.88;100883.34;5032871;28;20031;-72
2022/09/13 04:22:55;;;;;;;8.80;7.47;;;;;;;16.58;91.27;100885.03;5032243;28;20171;-72
2022/09/13 04:25:21;;;;;;;7.95;7.15;;;;;;;16.47;92.20;100875.47;5013721;28;20044;-73
2022/09/13 04:27:52;;;;;;;9.57;7.72;;;;;;;16.46;93.01;100884.41;5032559;28;20037;-72
2022/09/13 04:30:17;;;;;;;9.27;7.20;;;;;;;16.39;92.59;100891.28;5030413;28;20033;-77
2022/09/13 04:32:43;;;;;;;8.45;7.53;;;;;;;16.36;92.99;100882.78;5031595;28;20079;-72
2022/09/13 04:35:09;;;;;;;8.57;7.55;;;;;;;16.33;92.67;100893.72;5031518;28;20080;-72
2022/09/13 04:37:35;;;;;;;8.25;7.40;;;;;;;16.31;93.27;100901.81;5036843;28;20041;-72
2022/09/13 04:40:01;;;;;;;8.52;7.55;;;;;;;16.29;93.31;100899.31;5050756;28;20071;-72
2022/09/13 04:42:26;;;;;;;8.75;7.57;;;;;;;16.22;93.13;100903.56;5049365;28;20112;-72
2022/09/13 04:44:51;;;;;;;9.05;8.05;;;;;;;16.17;93.83;100900.50;5010672;28;1210328;-72
2022/09/13 04:47:17;;;;;;;9.95;8.05;;;;;;;16.15;93.49;100912.28;5053984;28;20115;-72
2022/09/13 04:49:42;;;;;;;10.32;8.10;;;;;;;16.11;94.20;100900.28;5054191;28;20310;-72
2022/09/13 04:52:07;;;;;;;8.35;7.47;;;;;;;16.08;94.07;100904.06;5043141;28;20086;-72
2022/09/13 04:54:33;;;;;;;9.10;8.30;;;;;;;16.06;94.22;100898.06;5034266;28;20032;-77
2022/09/13 04:56:58;;;;;;;11.02;7.57;;;;;;;16.10;94.36;100899.44;5015535;28;20108;-72
2022/09/13 04:59:24;;;;;;;8.90;8.07;;;;;;;16.09;94.88;100905.75;5016813;28;20033;-72
2022/09/13 05:01:49;;;;;;;11.05;7.93;;;;;;;16.10;95.43;100899.44;5016586;28;20049;-72
2022/09/13 05:04:15;;;;;;;8.07;7.35;;;;;;;16.13;95.37;100898.31;5014223;28;20088;-76
2022/09/13 05:06:40;;;;;;;8.80;7.93;;;;;;;16.10;95.48;100893.31;5033363;28;20025;-72
2022/09/13 05:09:06;;;;;;;9.10;8.20;;;;;;;16.10;95.32;100893.31;5033543;28;20032;-72
2022/09/13 05:11:32;;;;;;;11.85;8.52;;;;;;;16.11;95.47;100894.97;5035809;28;20034;-72
2022/09/13 05:13:58;;;;;;;8.93;7.80;;;;;;;16.14;95.36;100895.50;5033065;28;20056;-74
2022/09/13 05:16:29;;;;;;;9.27;8.10;;;;;;;16.13;95.61;100898.31;5032275;28;20032;-74
2022/09/13 05:18:55;;;;;;;10.95;7.95;;;;;;;16.14;95.51;100890.19;5031383;28;20033;-74
2022/09/13 05:21:23;;;;;;;10.50;8.20;;;;;;;16.17;96.15;100892.56;5014465;28;20018;-77
2022/09/13 05:23:50;;;;;;;10.93;8.35;;;;;;;16.15;96.44;100897.19;5031715;28;20028;-71
2022/09/13 05:26:16;;;;;;;9.90;8.52;;;;;;;16.12;96.75;100899.28;5033949;28;20225;-72
2022/09/13 05:28:42;;;;;;;13.43;8.00;;;;;;;16.11;96.45;100898.47;5031118;28;20057;-72
2022/09/13 05:31:13;;;;;;;9.18;8.20;;;;;;;16.10;96.88;100903.91;5032010;28;20056;-73
2022/09/13 05:33:39;;;;;;;10.20;8.10;;;;;;;16.12;96.83;100902.78;5030544;28;20025;-72
2022/09/13 05:36:05;;;;;;;10.20;8.20;;;;;;;16.12;97.00;100907.25;5030804;28;20032;-72
2022/09/13 05:38:31;;;;;;;15.18;8.18;;;;;;;16.14;96.95;100908.78;5031281;28;20057;-72
2022/09/13 05:41:02;;;;;;;9.32;8.27;;;;;;;16.14;97.13;100914.09;5028310;28;20057;-72
2022/09/13 05:43:30;;;;;;;13.68;8.27;;;;;;;16.13;97.38;100917.72;5034051;28;20031;-73
2022/09/13 05:46:11;;;;;;;14.43;8.60;;;;;;;16.14;97.82;100916.75;5025566;28;20034;-72
2022/09/13 05:48:38;;;;;;;14.70;8.60;;;;;;;16.15;97.69;100918.41;5031199;28;20509;-73
2022/09/13 05:51:16;;;;;;;12.18;8.45;;;;;;;16.19;97.61;100917.13;5021440;28;20029;-73
2022/09/13 05:53:44;;;;;;;11.35;8.43;;;;;;;16.21;98.13;100909.84;5034102;28;20078;-73
2022/09/13 05:56:12;;;;;;;11.23;8.63;;;;;;;16.21;98.49;100912.50;5043601;28;20017;-77
2022/09/13 05:58:42;;;;;;;10.00;8.18;;;;;;;16.22;98.57;100913.34;5039919;28;20029;-73
2022/09/13 06:01:08;;;;;;;11.20;9.07;;;;;;;16.25;98.97;100913.88;5041450;28;20167;-72
2022/09/13 06:03:34;;;;;;;10.23;8.65;;;;;;;16.29;98.84;100909.94;5047440;28;20457;-73
2022/09/13 06:05:59;;;;;;;13.77;9.02;;;;;;;16.29;98.79;100914.41;5048980;28;20127;-73
2022/09/13 06:08:26;;;;;;;10.07;8.55;;;;;;;16.29;98.68;100914.41;5014595;28;20713;-73
2022/09/13 06:11:01;;;;;;;11.13;8.60;;;;;;;16.32;98.85;100916.78;5031100;28;20396;-73
2022/09/13 06:13:27;;;;;;;12.13;9.27;;;;;;;16.34;98.63;100912.16;5049036;28;20021;-76
2022/09/13 06:15:54;;;;;;;14.52;10.38;;;;;;;16.36;97.76;100912.84;5048815;28;20017;-77
2022/09/13 06:18:20;;;;;;;17.00;10.10;;;;;;;16.41;98.47;100912.38;5048371;28;20025;-72
2022/09/13 06:20:46;;;;;;;11.70;9.45;;;;;;;16.43;98.16;100915.75;5018435;28;20028;-77
2022/09/13 06:23:12;;;;;;;12.80;9.73;;;;;;;16.46;97.63;100915.44;5029918;28;20031;-72
2022/09/13 06:25:42;;;;;;;13.32;9.65;;;;;;;16.51;97.08;100915.84;5049135;28;20037;-72
2022/09/13 06:28:09;;;;;;;11.13;10.00;;;;;;;16.54;97.79;100907.56;5048829;28;20174;-72
2022/09/13 06:30:35;;;;;;;11.38;9.13;;;;;;;16.58;97.06;100900.97;5048225;28;20070;-72
2022/09/13 06:33:00;;;;;;;19.00;9.57;;;;;;;16.64;97.34;100910.97;5041587;28;20109;-72
2022/09/13 06:35:26;;;;;;;11.52;9.45;;;;;;;16.68;97.48;100898.25;5039789;28;20103;-72
2022/09/13 06:37:55;;;;;;;10.90;8.43;;;;;;;16.77;97.24;100908.81;5047884;28;20426;-72
2022/09/13 06:40:25;;;;;;;13.48;9.80;;;;;;;16.77;96.92;100903.47;5010401;28;20030;-72
2022/09/13 06:42:51;;;;;;;14.68;10.40;;;;;;;16.85;96.77;100900.94;5044583;28;20021;-72
2022/09/13 06:45:17;;;;;;;12.48;10.00;;;;;;;16.92;96.47;100906.47;5038435;28;20053;-80
2022/09/13 06:47:43;;;;;;;14.60;10.30;;;;;;;17.00;95.75;100905.69;5017194;28;20040;-79
2022/09/13 06:50:12;;;;;;;15.85;10.20;;;;;;;17.04;96.20;100907.88;5047700;28;20440;-72
2022/09/13 06:52:38;;;;;;;19.40;10.98;;;;;;;17.10;95.67;100909.09;5044298;28;20477;-72
2022/09/13 06:55:03;;;;;;;15.40;10.75;;;;;;;17.20;95.14;100913.31;5042424;28;20017;-72
2022/09/13 06:57:29;;;;;;;11.48;10.27;;;;;;;17.30;93.98;100915.91;5040705;28;20690;-72
2022/09/13 06:59:58;;;;;;;13.98;10.77;;;;;;;17.34;93.71;100906.63;5042061;28;20029;-72
2022/09/13 07:02:24;;;;;;;14.70;10.32;;;;;;;17.45;93.41;100909.03;5043220;28;20020;-72
2022/09/13 07:04:49;;;;;;;12.77;10.63;;;;;;;17.54;92.88;100908.06;5012755;28;20052;-72
2022/09/13 07:07:15;;;;;;;11.90;10.68;;;;;;;17.63;91.41;100908.16;5039786;28;20506;-82
2022/09/13 07:09:42;;;;;;;16.80;11.13;;;;;;;17.75;90.47;100904.25;5039985;28;20028;-72
2022/09/13 07:12:07;;;;;;;12.35;10.13;;;;;;;17.82;90.42;100906.09;5042615;28;20125;-72
2022/09/13 07:14:32;;;;;;;12.35;11.05;;;;;;;17.93;89.74;100904.97;5043079;28;20382;-82
2022/09/13 07:16:59;;;;;;;12.38;11.00;;;;;;;18.02;89.85;100901.38;5044617;28;20048;-82
2022/09/13 07:19:25;;;;;;;14.95;11.90;;;;;;;18.13;88.91;100894.94;5040733;28;20481;-72
2022/09/13 07:21:52;;;;;;;13.15;11.82;;;;;;;18.15;88.07;100903.59;5035748;28;20033;-72
2022/09/13 07:24:19;;;;;;;13.93;12.52;;;;;;;18.27;87.70;100904.13;5039813;28;20025;-72
2022/09/13 07:26:45;;;;;;;13.90;12.43;;;;;;;18.37;88.11;100910.13;5049002;28;20028;-82
2022/09/13 07:29:15;;;;;;;13.52;12.07;;;;;;;18.40;87.46;100913.31;5031273;28;20115;-72
2022/09/13 07:31:43;;;;;;;15.00;12.15;;;;;;;18.55;86.80;100918.84;5049063;28;20025;-73
2022/09/13 07:34:15;;;;;;;15.63;13.05;;;;;;;18.65;86.63;100924.91;5031421;28;20032;-73
2022/09/13 07:36:41;;;;;;;16.77;12.32;;;;;;;18.76;86.87;100921.91;5048139;28;20508;-73
2022/09/13 07:39:07;;;;;;;14.23;12.73;;;;;;;18.88;86.48;100921.63;5033894;28;20029;-72
2022/09/13 07:41:34;;;;;;;22.48;13.00;;;;;;;19.04;85.47;100925.09;5028266;28;20017;-73
2022/09/13 07:44:06;;;;;;;18.67;13.48;;;;;;;19.13;84.57;100928.59;5037531;28;20057;-72
2022/09/13 07:46:35;;;;;;;;;;;;;;;19.34;86.69;100925.44;5048635;28;20031;-73
2022/09/13 07:49:01;;;;;;;16.67;13.45;;;;;;;19.37;85.28;100931.28;5049244;28;20288;-73
2022/09/13 07:51:31;;;;;;;17.90;14.48;;;;;;;19.35;83.74;100927.09;5031148;28;20476;-73
2022/09/13 07:53:59;;;;;;;21.60;14.85;;;;;;;19.48;83.68;100931.91;5026132;28;20124;-73
2022/09/13 07:56:31;;;;;;;20.73;14.57;;;;;;;19.60;83.62;100933.25;5048984;28;20568;-73
2022/09/13 07:58:59;;;;;;;20.70;16.08;;;;;;;19.74;82.11;100940.59;5030861;28;20033;-73
2022/09/13 08:01:32;;;;;;;25.27;16.27;;;;;;;19.86;83.11;100933.88;5047002;28;20024;-73
2022/09/13 08:04:04;;;;;;;20.48;16.65;;;;;;;19.98;82.02;100943.16;5049401;28;20029;-72
2022/09/13 08:06:31;;;;;;;19.77;16.63;;;;;;;20.03;81.71;100940.84;5049047;28;20033;-72
2022/09/13 08:08:57;;;;;;;19.05;17.02;;;;;;;20.22;79.97;100936.91;5048524;28;20067;-72
2022/09/13 08:11:27;;;;;;;18.70;16.75;;;;;;;20.35;80.80;100936.34;5047564;28;20049;-72
2022/09/13 08:13:52;;;;;;;20.63;18.38;;;;;;;20.43;79.60;100939.03;5039010;28;20075;-72
2022/09/13 08:16:20;;;;;;;22.90;18.95;;;;;;;20.59;78.79;100936.25;5048708;28;20427;-72
2022/09/13 08:18:47;;;;;;;22.15;17.85;;;;;;;20.67;78.89;100923.81;5033348;28;20037;-72
2022/09/13 08:21:13;;;;;;;24.88;18.85;;;;;;;20.91;78.38;100937.03;5027994;28;20068;-72
2022/09/13 08:23:38;;;;;;;20.60;18.10;;;;;;;21.07;77.30;100926.19;5011346;28;20473;-73
2022/09/13 08:26:06;;;;;;;25.25;21.33;;;;;;;21.11;76.39;100937.38;5027533;28;20025;-72
2022/09/13 08:28:32;;;;;;;28.05;22.20;;;;;;;21.29;76.57;100931.75;5010428;28;20481;-73
2022/09/13 08:31:06;;;;;;;24.30;21.08;;;;;;;21.45;76.74;100942.31;5045300;28;20017;-73
2022/09/13 08:33:32;;;;;;;33.45;22.50;;;;;;;21.51;75.22;100945.06;5030692;28;20025;-73
2022/09/13 08:35:57;;;;;;;26.27;20.33;;;;;;;21.55;75.78;100938.34;5050800;28;20020;-82
2022/09/13 08:38:23;;;;;;;23.73;20.27;;;;;;;21.58;75.80;100940.66;5044622;28;20013;-72
2022/09/13 08:40:52;;;;;;;23.30;20.80;;;;;;;21.61;76.09;100949.31;5032433;28;20030;-72
2022/09/13 08:43:18;;;;;;;23.30;20.88;;;;;;;21.70;75.63;100954.44;5031755;28;20071;-72
2022/09/13 08:45:59;;;;;;;22.63;20.33;;;;;;;21.78;76.88;100958.88;5032404;28;20069;-72
2022/09/13 08:48:33;;;;;;;24.17;21.60;;;;;;;21.94;75.01;100952.50;5032376;28;20029;-82
2022/09/13 08:51:06;;;;;;;24.63;22.02;;;;;;;22.01;74.87;100951.56;5032276;28;20017;-72
2022/09/13 08:53:44;;;;;;;23.63;20.88;;;;;;;22.26;73.88;100954.00;5032901;28;20048;-72
2022/09/13 08:56:18;;;;;;;23.25;20.85;;;;;;;22.50;73.46;100945.63;5032584;28;20470;-73
2022/09/13 08:59:17;;;;;;;25.20;20.77;;;;;;;22.62;73.96;100936.06;5034508;28;20104;-72
2022/09/13 09:02:20;;;;;;;23.58;19.42;;;;;;;22.83;73.14;100934.47;5032779;28;20064;-73
2022/09/13 09:05:03;;;;;;;23.73;21.08;;;;;;;22.87;72.02;100931.22;5032283;28;20401;-72
2022/09/13 09:07:35;;;;;;;24.33;20.30;;;;;;;22.64;71.43;100934.03;5032417;28;20029;-72
2022/09/13 09:10:03;;;;;;;23.90;21.27;;;;;;;22.61;71.80;100926.38;5031960;28;20029;-81
2022/09/13 09:12:42;;;;;;;23.38;20.80;;;;;;;22.75;71.76;100922.78;5032235;28;20286;-72
2022/09/13 09:15:34;;;;;;;21.83;19.40;;;;;;;22.77;71.71;100922.59;5035688;28;20480;-73
2022/09/13 09:18:15;;;;;;;21.23;19.02;;;;;;;22.53;71.56;100915.75;5032327;28;20014;-73
2022/09/13 09:20:53;;;;;;;24.38;19.35;;;;;;;22.52;72.36;100916.78;5031992;28;20363;-73
2022/09/13 09:23:36;;;;;;;23.85;19.38;;;;;;;22.60;73.60;100921.19;5032152;28;20124;-80
2022/09/13 09:26:13;;;;;;;26.23;19.48;;;;;;;22.77;73.36;100919.91;5037654;28;20028;-73
2022/09/13 09:28:39;;;;;;;23.75;19.40;;;;;;;22.86;71.93;100918.00;5047649;28;20024;-73
2022/09/13 09:31:24;;;;;;;23.85;19.45;;;;;;;23.24;71.75;100921.22;5033325;28;20500;-81
2022/09/13 09:34:41;;;;;;;22.15;19.80;;;;;;;23.44;71.52;100922.19;5052496;28;20031;-73
2022/09/13 09:37:19;;;;;;;22.08;18.17;;;;;;;23.66;70.13;100928.38;5030756;28;20568;-73
2022/09/13 09:39:45;;;;;;;22.05;19.25;;;;;;;23.67;68.40;100928.19;5029941;28;20140;-81
2022/09/13 09:42:29;;;;;;;23.08;19.08;;;;;;;23.71;69.12;100928.59;5037028;28;20027;-73
2022/09/13 09:45:05;;;;;;;19.33;17.42;;;;;;;23.84;69.55;100922.47;5056978;28;20510;-80
2022/09/13 09:47:49;;;;;;;20.02;18.02;;;;;;;23.79;67.31;100919.56;5049326;28;20075;-73
2022/09/13 09:50:22;;;;;;;18.55;15.48;;;;;;;23.84;66.76;100917.09;5050720;28;20388;-73
2022/09/13 09:52:56;;;;;;;19.33;15.15;;;;;;;23.92;66.43;100914.25;5038259;28;20082;-80
2022/09/13 09:55:26;;;;;;;17.67;15.45;;;;;;;24.01;66.02;100913.03;5051904;28;20094;-80
2022/09/13 09:57:53;;;;;;;16.75;15.05;;;;;;;23.98;66.13;100908.06;5064602;28;20024;-73
2022/09/13 10:00:20;;;;;;;15.32;11.20;;;;;;;23.92;64.78;100920.44;5070235;28;20024;-72
2022/09/13 10:02:47;;;;;;;16.08;11.90;;;;;;;24.09;65.15;100920.97;5057304;28;20052;-73
2022/09/13 10:05:18;;;;;;;15.75;11.98;;;;;;;24.10;65.59;100916.41;5050588;28;20075;-73
2022/09/13 10:07:53;;;;;;;17.63;14.50;;;;;;;24.09;66.23;100920.97;5049438;28;20063;-73
2022/09/13 10:10:42;;;;;;;20.08;15.57;;;;;;;24.14;66.57;100907.75;5050787;28;20025;-73
2022/09/13 10:13:20;;;;;;;16.67;14.85;;;;;;;24.12;66.85;100899.03;5034636;28;20091;-73
2022/09/13 10:16:03;;;;;;;19.85;14.35;;;;;;;24.29;67.21;100899.53;5058763;28;20032;-73
2022/09/13 10:18:30;;;;;;;16.98;13.40;;;;;;;24.53;65.34;100908.94;5054563;28;20032;-72
2022/09/13 10:21:17;;;;;;;14.75;12.95;;;;;;;24.57;65.37;100902.94;5050984;28;20040;-72
2022/09/13 10:23:44;;;;;;;15.10;13.55;;;;;;;24.40;64.65;100903.50;5032198;28;20029;-73
2022/09/13 10:26:12;;;;;;;14.85;12.05;;;;;;;24.43;66.44;100905.81;5041549;28;20083;-73
2022/09/13 10:28:44;;;;;;;15.88;12.95;;;;;;;24.20;67.87;100903.41;5045167;28;20032;-81
2022/09/13 10:31:18;;;;;;;16.92;14.18;;;;;;;24.18;65.60;100898.25;5049947;28;20024;-75
2022/09/13 10:33:49;;;;;;;15.65;13.07;;;;;;;24.01;67.22;100907.66;5036870;28;20427;-73
2022/09/13 10:36:25;;;;;;;14.88;13.35;;;;;;;24.04;67.99;100904.59;5028434;28;20013;-80
2022/09/13 10:38:57;;;;;;;15.57;13.30;;;;;;;23.81;67.15;100906.75;5021484;28;20025;-73
2022/09/13 10:41:26;;;;;;;18.00;12.55;;;;;;;23.88;68.30;100910.28;5044190;28;20493;-73
2022/09/13 10:43:59;;;;;;;13.93;12.43;;;;;;;23.87;69.16;100916.69;5050796;28;20136;-81
2022/09/13 10:46:28;;;;;;;16.33;11.52;;;;;;;23.85;68.09;100910.69;5033130;28;20078;-73
2022/09/13 10:48:56;;;;;;;15.75;13.32;;;;;;;23.77;68.31;100910.84;5050016;28;20040;-73
2022/09/13 10:51:36;;;;;;;19.08;14.57;;;;;;;23.66;68.46;100913.09;5037984;28;20033;-73
2022/09/13 10:54:22;;;;;;;16.40;12.80;;;;;;;23.62;69.39;100905.63;5012628;28;20069;-73
2022/09/13 10:56:52;;;;;;;13.75;12.07;;;;;;;23.56;69.16;100904.53;5057883;28;20451;-73
2022/09/13 10:59:29;;;;;;;14.63;12.25;;;;;;;23.55;69.05;100902.00;5046682;28;20025;-73
2022/09/13 11:02:21;;;;;;;13.80;11.43;;;;;;;23.59;70.23;100896.06;5070127;28;20432;-73
2022/09/13 11:05:00;;;;;;;19.23;11.68;;;;;;;23.59;69.02;100893.38;5056033;28;20025;-73
2022/09/13 11:07:50;;;;;;;14.10;11.05;;;;;;;23.65;70.99;100887.25;5057501;28;20035;-73
2022/09/13 11:10:41;;;;;;;15.10;11.77;;;;;;;23.77;69.62;100878.63;5049192;28;20874;-73
2022/09/13 11:13:15;;;;;;;13.43;11.02;;;;;;;24.03;69.89;100876.88;5032587;28;20033;-73
2022/09/13 11:15:53;;;;;;;14.98;10.70;;;;;;;24.18;69.34;100876.72;5054136;28;20021;-81
2022/09/13 11:18:40;;;;;;;14.82;11.32;;;;;;;24.29;67.81;100870.78;5049471;28;20033;-73
2022/09/13 11:21:22;;;;;;;12.60;10.60;;;;;;;24.42;67.37;100871.88;5037223;28;20120;-73
2022/09/13 11:24:17;;;;;;;12.73;9.82;;;;;;;24.66;66.96;100868.59;5054765;28;20031;-83
2022/09/13 11:27:04;;;;;;;12.30;8.15;;;;;;;25.02;64.75;100862.03;5041885;28;20044;-72
2022/09/13 11:29:56;;;;;;;11.23;8.05;;;;;;;25.28;65.03;100862.00;5037971;28;20470;-73
2022/09/13 11:32:30;;;;;;;12.23;9.57;;;;;;;25.36;63.67;100867.16;5048783;28;20377;-83
2022/09/13 11:35:17;;;;;;;12.93;9.05;;;;;;;25.70;62.38;100870.66;5049645;28;20036;-83
2022/09/13 11:37:48;;;;;;;11.95;8.73;;;;;;;25.85;60.23;100860.44;5048483;28;20075;-83
2022/09/13 11:40:32;;;;;;;11.48;7.68;;;;;;;26.05;61.25;100863.88;5047838;28;20029;-74